Mandalgovi, Mongolia
Current Conditions -  °F | °C
As of 8:00 PM on Wednesday 22 Oct 2014 (Local Time) from ZMUB Reporting Station
Clear Clear  
Wind Chill: 34°   Ceiling: Unl
Heat Index: 34°   Visibility: 6mi
Dew Point: 18°   Wind: 2mph
Humidity: 52%   Direction: NA
Pressure: 29.91"   Gusts: NA
Location:  45.77°N, 106.26°E
Report Text: ZMUB 221200Z VRB01MPS CAVOK 01/M08 Q1013 NOSIG RMK QFE652.6 51
Loading
Personal Weather Stations






























Interactive Weather Map
Tropical Storm Tracking
New forecast layout! Learn more

10-Day Weather Forecast

Advertisements
Track Severe Weather on mobile